Terminal Aerodrome Forecast
Issued by NWS

Home | Current Version | Previous Version | Text Only | Print | Product List | Glossary On
Versions: 1 2 3 4 5 6 7 8 9 10 11 12 13 14 15 16 17 18 19 20 21 22 23 24 25
000
FTUS44 KLZK 161730
TAFBPK
TAF
KBPK 161730Z 1618/1718 15006KT 1/2SM FG VV002
     FM162100 18011KT 3SM BR OVC007
     FM170300 24006KT 4SM HZ OVC010
     FM171200 28007KT P6SM OVC015=

USA.gov is the U.S. government's official web portal to all federal, state and local government web resources and services.